createdAt,value
2023-02-25T00:02:26.678Z,6.59
2023-02-25T00:07:30.076Z,6.63
2023-02-25T00:12:33.200Z,6.60
2023-02-25T00:17:39.962Z,6.59
2023-02-25T00:22:43.423Z,6.58
2023-02-25T00:27:46.299Z,6.66
2023-02-25T00:32:50.485Z,6.76
2023-02-25T00:37:57.125Z,6.76
2023-02-25T00:43:04.512Z,6.76
2023-02-25T00:48:08.656Z,6.70
2023-02-25T00:53:11.589Z,6.57
2023-02-25T00:58:14.461Z,6.48
2023-02-25T01:03:17.393Z,6.43
2023-02-25T01:08:20.838Z,6.32
2023-02-25T01:13:23.735Z,6.10
2023-02-25T01:18:26.593Z,5.96
2023-02-25T01:23:30.411Z,5.80
2023-02-25T01:28:33.297Z,5.77
2023-02-25T01:33:39.231Z,5.78
2023-02-25T01:38:42.179Z,5.84
2023-02-25T01:44:25.373Z,5.89
2023-02-25T01:49:41.038Z,5.95
2023-02-25T01:54:47.234Z,5.94
2023-02-25T01:59:53.800Z,5.95
2023-02-25T02:04:56.807Z,5.92
2023-02-25T02:10:00.608Z,5.86
2023-02-25T02:15:06.442Z,5.87
2023-02-25T02:20:15.764Z,5.99
2023-02-25T02:25:52.804Z,6.05
2023-02-25T02:31:17.635Z,6.11
2023-02-25T02:36:58.066Z,6.11
2023-02-25T02:42:17.085Z,6.06
2023-02-25T02:47:32.696Z,5.99
2023-02-25T02:52:42.959Z,5.94
2023-02-25T02:57:46.032Z,5.99
2023-02-25T03:03:00.402Z,6.08
2023-02-25T03:08:20.276Z,6.15
2023-02-25T03:13:23.586Z,6.17
2023-02-25T03:18:39.090Z,6.15
2023-02-25T03:23:46.355Z,6.08
2023-02-25T03:28:49.380Z,6.01
2023-02-25T03:33:58.191Z,5.97
2023-02-25T03:39:11.990Z,5.99
2023-02-25T03:44:25.718Z,6.02
2023-02-25T03:49:46.390Z,6.00
2023-02-25T03:54:55.586Z,5.95
2023-02-25T03:59:58.448Z,5.86
2023-02-25T04:05:01.517Z,5.78
2023-02-25T04:10:07.498Z,5.78
2023-02-25T04:15:14.147Z,5.83
2023-02-25T04:20:17.429Z,5.84
2023-02-25T04:25:20.313Z,5.84
2023-02-25T04:30:23.210Z,5.75
2023-02-25T04:35:26.107Z,5.67
2023-02-25T04:40:29.221Z,5.66
2023-02-25T04:45:32.167Z,5.65
2023-02-25T04:50:35.063Z,5.61
2023-02-25T04:55:38.000Z,5.52
2023-02-25T05:00:40.927Z,5.41
2023-02-25T05:05:43.849Z,5.36
2023-02-25T05:10:47.074Z,5.31
2023-02-25T05:15:50.219Z,5.23
2023-02-25T05:20:54.143Z,5.13
2023-02-25T05:25:58.889Z,5.03
2023-02-25T05:31:09.186Z,4.97
2023-02-25T05:36:15.607Z,4.92
2023-02-25T05:41:18.461Z,4.88
2023-02-25T05:46:22.569Z,4.82
2023-02-25T05:51:25.720Z,4.80
2023-02-25T05:56:31.717Z,4.79
2023-02-25T06:01:35.155Z,4.73
2023-02-25T06:06:38.075Z,4.66
2023-02-25T06:11:40.927Z,4.64
2023-02-25T06:16:44.704Z,4.63
2023-02-25T06:21:47.612Z,4.65
2023-02-25T06:26:50.775Z,4.59
2023-02-25T06:31:55.051Z,4.54
2023-02-25T06:36:58.065Z,4.53
2023-02-25T06:42:01.162Z,4.58
2023-02-25T06:47:04.175Z,4.61
2023-02-25T06:52:07.091Z,4.61
2023-02-25T06:57:09.974Z,4.57
2023-02-25T07:02:13.320Z,4.58
2023-02-25T07:07:16.243Z,4.67
2023-02-25T07:12:19.710Z,4.75
2023-02-25T07:17:22.631Z,4.76
2023-02-25T07:22:25.575Z,4.77
2023-02-25T07:27:28.432Z,4.80
2023-02-25T07:32:31.506Z,4.89
2023-02-25T07:37:34.555Z,4.98
2023-02-25T07:42:37.466Z,5.03
2023-02-25T07:47:40.394Z,5.08
2023-02-25T07:52:43.288Z,5.14
2023-02-25T07:57:46.196Z,5.24
2023-02-25T08:02:49.180Z,5.33
2023-02-25T08:07:52.412Z,5.39
2023-02-25T08:12:55.314Z,5.45
2023-02-25T08:17:58.905Z,5.51
2023-02-25T08:23:01.857Z,5.60
2023-02-25T08:28:05.045Z,5.61
2023-02-25T08:33:07.918Z,5.59
2023-02-25T08:38:13.029Z,5.55
2023-02-25T08:43:16.007Z,5.59
2023-02-25T08:48:18.859Z,5.66
2023-02-25T08:53:23.516Z,5.70
2023-02-25T08:58:26.666Z,5.62
2023-02-25T09:03:29.693Z,5.56
2023-02-25T09:08:32.628Z,5.50
2023-02-25T09:13:35.579Z,5.51
2023-02-25T09:18:38.476Z,5.53
2023-02-25T09:23:41.625Z,5.56
2023-02-25T09:28:45.284Z,5.62
2023-02-25T09:33:48.225Z,5.68
2023-02-25T09:38:52.081Z,5.67
2023-02-25T09:44:10.692Z,5.64
2023-02-25T09:49:26.465Z,5.64
2023-02-25T09:54:39.919Z,5.77
2023-02-25T09:59:42.844Z,5.90
2023-02-25T10:05:16.537Z,5.93
2023-02-25T10:11:02.046Z,5.95
2023-02-25T10:16:08.838Z,5.93
2023-02-25T10:21:52.493Z,5.91
2023-02-25T10:27:03.748Z,5.93
2023-02-25T10:32:27.027Z,5.98
2023-02-25T10:37:35.078Z,5.97
2023-02-25T10:42:38.531Z,6.03
2023-02-25T10:47:47.594Z,6.11
2023-02-25T10:53:05.420Z,6.23
2023-02-25T10:58:37.536Z,6.19
2023-02-25T11:03:45.684Z,5.70
2023-02-25T11:08:48.777Z,5.49
2023-02-25T11:14:16.627Z,5.46
2023-02-25T11:19:31.672Z,5.49
2023-02-25T11:24:37.668Z,5.48
2023-02-25T11:29:43.315Z,5.50
2023-02-25T11:34:55.456Z,5.55
2023-02-25T11:39:59.285Z,5.67
2023-02-25T11:45:04.637Z,5.71
2023-02-25T11:50:34.074Z,5.67
2023-02-25T11:56:24.909Z,5.66
2023-02-25T12:02:14.153Z,5.75
2023-02-25T12:07:38.672Z,5.98
2023-02-25T12:13:24.494Z,6.03
2023-02-25T12:19:07.917Z,5.98
2023-02-25T12:24:33.273Z,5.95
2023-02-25T12:29:56.851Z,5.91
2023-02-25T12:35:28.801Z,5.95
2023-02-25T12:40:52.677Z,6.00
2023-02-25T12:46:35.235Z,6.01
2023-02-25T12:52:04.854Z,5.94
2023-02-25T12:57:50.772Z,5.92
2023-02-25T13:03:33.207Z,5.87
2023-02-25T13:08:38.682Z,5.79
2023-02-25T13:14:01.655Z,5.59
2023-02-25T13:19:17.962Z,5.33
2023-02-25T13:25:15.876Z,5.28
2023-02-25T13:30:40.606Z,5.30
2023-02-25T13:35:57.083Z,5.36
2023-02-25T13:41:50.419Z,5.32
2023-02-25T13:47:28.264Z,5.29
2023-02-25T13:53:01.750Z,5.33
2023-02-25T13:58:42.965Z,5.30
2023-02-25T14:04:09.093Z,5.23
2023-02-25T14:09:54.768Z,5.16
2023-02-25T14:15:23.972Z,5.19
2023-02-25T14:21:04.560Z,5.20
2023-02-25T14:26:41.278Z,5.18
2023-02-25T14:32:12.338Z,5.13
2023-02-25T14:37:36.226Z,5.17
2023-02-25T14:43:31.478Z,5.15
2023-02-25T14:49:01.222Z,5.09
2023-02-25T14:54:54.784Z,5.02
2023-02-25T15:00:48.340Z,4.97
2023-02-25T15:06:46.105Z,4.87
2023-02-25T15:12:55.321Z,4.75
2023-02-25T15:18:32.058Z,4.74
2023-02-25T15:23:51.440Z,4.72
2023-02-25T15:28:55.674Z,4.66
2023-02-25T15:34:23.419Z,4.59
2023-02-25T15:39:49.016Z,4.56
2023-02-25T15:44:52.243Z,4.52
2023-02-25T15:49:57.584Z,4.43
2023-02-25T15:55:30.947Z,4.31
2023-02-25T16:00:43.041Z,4.27
2023-02-25T16:05:46.806Z,4.28
2023-02-25T16:10:55.346Z,4.25
2023-02-25T16:16:00.258Z,4.21
2023-02-25T16:21:38.023Z,4.21
2023-02-25T16:27:03.188Z,4.25
2023-02-25T16:32:34.380Z,4.26
2023-02-25T16:37:58.351Z,4.27
2023-02-25T16:43:01.418Z,4.24
2023-02-25T16:48:16.728Z,4.18
2023-02-25T16:53:24.232Z,4.19
2023-02-25T16:58:30.537Z,4.25
2023-02-25T17:03:46.696Z,4.28
2023-02-25T17:08:51.354Z,4.26
2023-02-25T17:13:58.683Z,4.19
2023-02-25T17:19:05.378Z,4.12
2023-02-25T17:24:14.958Z,4.17
2023-02-25T17:29:19.114Z,4.17
2023-02-25T17:34:33.008Z,4.16
2023-02-25T17:39:36.267Z,4.14
2023-02-25T17:44:39.134Z,4.14
2023-02-25T17:49:42.178Z,4.20
2023-02-25T17:54:57.157Z,4.26
2023-02-25T18:00:32.447Z,4.25
2023-02-25T18:05:50.211Z,4.21
2023-02-25T18:11:20.592Z,4.18
2023-02-25T18:16:41.349Z,4.19
2023-02-25T18:21:44.518Z,4.20
2023-02-25T18:27:08.205Z,4.17
2023-02-25T18:32:12.795Z,4.09
2023-02-25T18:37:18.838Z,4.05
2023-02-25T18:42:21.740Z,4.09
2023-02-25T18:47:24.923Z,4.17
2023-02-25T18:52:27.934Z,4.19
2023-02-25T18:57:30.852Z,4.18
2023-02-25T19:02:39.450Z,4.12
2023-02-25T19:07:43.636Z,4.09
2023-02-25T19:12:50.873Z,4.13
2023-02-25T19:17:53.770Z,4.15
2023-02-25T19:22:56.618Z,4.12
2023-02-25T19:27:59.566Z,4.08
2023-02-25T19:33:04.949Z,4.04
2023-02-25T19:38:14.661Z,4.04
2023-02-25T19:43:18.591Z,4.01
2023-02-25T19:48:21.423Z,4.00
2023-02-25T19:53:24.287Z,3.93
2023-02-25T19:58:27.170Z,3.91
2023-02-25T20:03:30.061Z,3.96
2023-02-25T20:08:35.758Z,4.00
2023-02-25T20:13:39.056Z,4.05
2023-02-25T20:18:41.955Z,4.03
2023-02-25T20:23:44.783Z,3.99
2023-02-25T20:28:47.770Z,3.96
2023-02-25T20:33:57.718Z,3.97
2023-02-25T20:39:25.493Z,4.07
2023-02-25T20:44:28.546Z,4.12
2023-02-25T20:49:32.912Z,4.08
2023-02-25T20:54:35.783Z,4.02
2023-02-25T20:59:38.714Z,4.02
2023-02-25T21:04:41.583Z,4.06
2023-02-25T21:09:44.543Z,4.09
2023-02-25T21:14:47.418Z,4.10
2023-02-25T21:19:50.290Z,4.03
2023-02-25T21:24:53.240Z,3.95
2023-02-25T21:29:56.790Z,3.85
2023-02-25T21:34:59.668Z,3.85
2023-02-25T21:40:03.074Z,3.71
2023-02-25T21:45:07.401Z,3.68
2023-02-25T21:50:11.215Z,3.72
2023-02-25T21:55:14.010Z,3.80
2023-02-25T22:00:17.477Z,3.80
2023-02-25T22:05:20.451Z,3.77
2023-02-25T22:10:23.348Z,3.71
2023-02-25T22:15:26.244Z,3.69
2023-02-25T22:20:29.210Z,3.66
2023-02-25T22:25:32.396Z,3.62
2023-02-25T22:30:35.278Z,3.62
2023-02-25T22:35:38.213Z,3.56
2023-02-25T22:40:41.245Z,3.51
2023-02-25T22:45:44.661Z,3.51
2023-02-25T22:50:49.710Z,3.53
2023-02-25T22:55:52.576Z,3.48
2023-02-25T23:00:55.534Z,3.37
2023-02-25T23:05:58.439Z,3.40
2023-02-25T23:11:17.906Z,3.38
2023-02-25T23:16:29.227Z,3.34
2023-02-25T23:21:33.399Z,3.39
2023-02-25T23:26:41.803Z,3.33
2023-02-25T23:31:47.773Z,3.23
2023-02-25T23:36:55.379Z,3.19
2023-02-25T23:41:58.368Z,3.10
2023-02-25T23:47:02.411Z,3.10
2023-02-25T23:52:05.316Z,3.06
2023-02-25T23:57:08.224Z,3.07
